Time;durP1;ratioP1;P1;durP2;ratioP2;P2;SDS_P1;SDS_P2;PMS_P1;PMS_P2;Temp;Humidity;BMP_temperature;BMP_pressure;BME280_temperature;BME280_humidity;BME280_pressure;Samples;Min_cycle;Max_cycle;Signal;HPM_P1;HPM_P2
2021/08/19 00:01:35;;;;;;;22.20;13.57;;;18.00;69.60;;;;;;5113606;28;20794;-75
2021/08/19 00:04:00;;;;;;;22.20;13.00;;;17.90;70.30;;;;;;5113924;28;20376;-76
2021/08/19 00:06:26;;;;;;;23.47;12.80;;;17.90;71.70;;;;;;5113924;28;20375;-76
2021/08/19 00:08:51;;;;;;;21.73;12.88;;;17.90;71.50;;;;;;5113792;28;20383;-76
2021/08/19 00:11:17;;;;;;;19.60;12.93;;;17.90;71.00;;;;;;5114388;28;20872;-75
2021/08/19 00:13:43;;;;;;;22.77;13.30;;;18.00;70.10;;;;;;5113407;28;20411;-75
2021/08/19 00:16:09;;;;;;;21.15;13.15;;;18.00;68.80;;;;;;5114218;28;20412;-75
2021/08/19 00:18:35;;;;;;;16.87;11.50;;;18.10;68.40;;;;;;5113872;28;20407;-75
2021/08/19 00:21:01;;;;;;;17.65;12.73;;;18.00;68.20;;;;;;5114376;28;20434;-75
2021/08/19 00:23:27;;;;;;;18.25;11.88;;;18.00;69.40;;;;;;5114581;28;20381;-75
2021/08/19 00:25:53;;;;;;;17.10;12.43;;;18.00;69.20;;;;;;5096182;28;20391;-75
2021/08/19 00:28:18;;;;;;;18.30;12.87;;;18.00;69.10;;;;;;5113648;28;20392;-77
2021/08/19 00:30:44;;;;;;;19.10;11.77;;;18.10;68.80;;;;;;5110035;22;20915;-76
2021/08/19 00:33:10;;;;;;;19.65;11.98;;;18.10;68.50;;;;;;5070792;28;20380;-75
2021/08/19 00:35:36;;;;;;;26.33;12.70;;;18.10;68.10;;;;;;5073252;28;20721;-76
2021/08/19 00:38:02;;;;;;;23.23;12.23;;;18.00;68.70;;;;;;5074165;28;20425;-75
2021/08/19 00:40:29;;;;;;;23.65;12.57;;;18.10;67.80;;;;;;5073221;28;20902;-75
2021/08/19 00:42:55;;;;;;;17.92;11.57;;;18.20;66.70;;;;;;5075156;28;20380;-74
2021/08/19 00:45:21;;;;;;;14.90;11.45;;;18.10;66.90;;;;;;5074545;28;20433;-74
2021/08/19 00:47:47;;;;;;;16.43;11.30;;;18.10;67.50;;;;;;5074315;28;20387;-75
2021/08/19 00:50:13;;;;;;;20.20;11.93;;;18.10;67.20;;;;;;5074567;28;20394;-76
2021/08/19 00:52:40;;;;;;;18.87;11.97;;;18.10;66.90;;;;;;5073365;28;20402;-75
2021/08/19 00:55:07;;;;;;;19.08;12.02;;;18.20;66.10;;;;;;5060372;28;20396;-76
2021/08/19 00:57:32;;;;;;;16.70;11.90;;;18.10;66.60;;;;;;5056060;28;20451;-76
2021/08/19 00:59:58;;;;;;;18.40;11.73;;;18.10;67.10;;;;;;5059033;28;20440;-75
2021/08/19 01:02:25;;;;;;;17.77;11.57;;;18.10;67.60;;;;;;5054690;28;20381;-77
2021/08/19 01:04:50;;;;;;;19.52;11.90;;;18.10;67.50;;;;;;5053553;28;20386;-75
2021/08/19 01:07:16;;;;;;;19.33;12.27;;;18.20;65.90;;;;;;5054658;28;20389;-76
2021/08/19 01:09:42;;;;;;;23.33;11.73;;;18.20;65.50;;;;;;5054551;28;20389;-76
2021/08/19 01:12:13;;;;;;;27.20;12.38;;;18.20;66.40;;;;;;5054867;28;20390;-75
2021/08/19 01:14:41;;;;;;;19.13;12.07;;;18.20;65.20;;;;;;5053933;28;20427;-76
2021/08/19 01:17:12;;;;;;;22.30;12.73;;;18.20;64.80;;;;;;5054629;28;20428;-75
2021/08/19 01:19:38;;;;;;;22.65;12.52;;;18.20;64.90;;;;;;5057208;28;20437;-75
2021/08/19 01:22:04;;;;;;;22.00;12.60;;;18.20;64.60;;;;;;5058678;28;20382;-74
2021/08/19 01:24:29;;;;;;;21.50;11.93;;;18.30;64.00;;;;;;5055442;28;20378;-74
2021/08/19 01:26:55;;;;;;;18.57;11.20;;;18.20;64.40;;;;;;5055934;28;20396;-76
2021/08/19 01:29:21;;;;;;;20.83;12.30;;;18.20;65.70;;;;;;5053583;28;20762;-76
2021/08/19 01:32:02;;;;;;;19.50;12.50;;;18.20;64.50;;;;;;5055231;28;20472;-77
2021/08/19 01:34:29;;;;;;;20.52;12.52;;;18.30;64.60;;;;;;5054850;28;20420;-76
2021/08/19 01:36:56;;;;;;;21.60;12.03;;;18.30;63.60;;;;;;5054744;28;20401;-76
2021/08/19 01:39:22;;;;;;;20.45;11.38;;;18.20;64.90;;;;;;5054551;28;20449;-76
2021/08/19 01:41:48;;;;;;;21.92;13.18;;;18.20;64.10;;;;;;5055310;28;20738;-76
2021/08/19 01:44:13;;;;;;;20.33;11.83;;;18.30;64.40;;;;;;5056911;28;20538;-77
2021/08/19 01:46:39;;;;;;;19.00;11.52;;;18.20;64.10;;;;;;5058046;28;20408;-77
2021/08/19 01:49:04;;;;;;;20.88;11.80;;;18.20;64.80;;;;;;5054293;28;20478;-75
2021/08/19 01:51:33;;;;;;;19.08;11.73;;;18.20;65.00;;;;;;5054331;28;20381;-75
2021/08/19 01:53:59;;;;;;;19.17;11.50;;;18.20;64.10;;;;;;5052675;28;20916;-77
2021/08/19 01:56:25;;;;;;;16.05;10.82;;;18.30;63.30;;;;;;5055359;28;20404;-76
2021/08/19 01:58:53;;;;;;;16.35;11.00;;;18.20;64.20;;;;;;5053747;28;20785;-76
2021/08/19 02:01:20;;;;;;;20.73;11.50;;;18.20;64.30;;;;;;5071657;28;20745;-76
2021/08/19 02:03:46;;;;;;;22.17;11.50;;;18.20;64.40;;;;;;5074071;28;20748;-76
2021/08/19 02:06:12;;;;;;;17.77;11.27;;;18.20;64.20;;;;;;5075245;28;20831;-76
2021/08/19 02:08:37;;;;;;;19.23;11.10;;;18.20;64.40;;;;;;5077057;28;20407;-76
2021/08/19 02:11:03;;;;;;;14.97;9.93;;;18.20;64.60;;;;;;5076005;28;20423;-76
2021/08/19 02:13:29;;;;;;;18.17;11.25;;;18.20;64.10;;;;;;5074063;28;20752;-76
2021/08/19 02:15:54;;;;;;;19.00;11.27;;;18.20;63.90;;;;;;5074209;28;20717;-77
2021/08/19 02:18:20;;;;;;;22.30;11.40;;;18.30;63.10;;;;;;5074627;28;20403;-78
2021/08/19 02:20:45;;;;;;;25.20;11.50;;;18.20;65.00;;;;;;5075169;28;20392;-77
2021/08/19 02:23:11;;;;;;;19.90;10.60;;;18.20;64.70;;;;;;5079881;28;20391;-76
2021/08/19 02:25:36;;;;;;;16.73;11.00;;;18.20;64.90;;;;;;5075788;28;20408;-77
2021/08/19 02:28:02;;;;;;;23.65;11.15;;;18.10;65.60;;;;;;5075209;28;20732;-76
2021/08/19 02:30:28;;;;;;;17.87;10.90;;;18.20;63.90;;;;;;5073623;28;20425;-77
2021/08/19 02:32:56;;;;;;;23.57;11.70;;;18.20;65.30;;;;;;5074189;28;20445;-77
2021/08/19 02:35:29;;;;;;;17.92;10.70;;;18.10;66.40;;;;;;5074678;28;20390;-78
2021/08/19 02:37:55;;;;;;;19.90;11.10;;;18.10;66.60;;;;;;5074384;28;20454;-77
2021/08/19 02:40:23;;;;;;;15.90;10.27;;;18.20;66.60;;;;;;5073675;28;20462;-76
2021/08/19 02:42:49;;;;;;;21.73;11.52;;;18.10;67.10;;;;;;5073769;28;20459;-77
2021/08/19 02:45:14;;;;;;;18.88;11.48;;;18.10;68.30;;;;;;5073481;28;20414;-77
2021/08/19 02:47:40;;;;;;;17.90;10.98;;;18.10;70.10;;;;;;5072891;28;20383;-77
2021/08/19 02:50:06;;;;;;;22.95;11.85;;;18.00;71.10;;;;;;5072851;28;20383;-76
2021/08/19 02:52:32;;;;;;;23.67;12.70;;;17.90;71.70;;;;;;5072759;28;20394;-76
2021/08/19 02:54:57;;;;;;;16.88;10.95;;;18.00;72.00;;;;;;5060604;28;20392;-76
2021/08/19 02:57:23;;;;;;;20.35;11.80;;;17.90;73.00;;;;;;5052531;28;20405;-76
2021/08/19 02:59:48;;;;;;;23.33;13.27;;;17.80;75.50;;;;;;5058710;28;20384;-76
2021/08/19 03:02:14;;;;;;;20.10;12.67;;;17.80;77.20;;;;;;5072825;28;20391;-76
2021/08/19 03:04:40;;;;;;;21.73;12.30;;;17.70;78.70;;;;;;5073880;28;20412;-76
2021/08/19 03:07:07;;;;;;;23.25;12.63;;;17.70;79.60;;;;;;5072777;28;20384;-78
2021/08/19 03:09:33;;;;;;;22.52;12.43;;;17.80;79.60;;;;;;5071023;28;20449;-77
2021/08/19 03:11:59;;;;;;;23.02;12.95;;;17.70;81.60;;;;;;5072731;28;20387;-77
2021/08/19 03:14:24;;;;;;;24.77;13.40;;;17.70;81.10;;;;;;5071542;28;20419;-77
2021/08/19 03:16:50;;;;;;;23.00;13.00;;;17.60;82.70;;;;;;5073215;28;20399;-78
2021/08/19 03:19:15;;;;;;;20.67;13.70;;;17.60;85.40;;;;;;5075165;28;20819;-77
2021/08/19 03:21:41;;;;;;;25.80;14.82;;;17.50;86.30;;;;;;5073503;28;20387;-77
2021/08/19 03:24:07;;;;;;;22.58;14.35;;;17.50;86.40;;;;;;5073247;28;20380;-77
2021/08/19 03:26:32;;;;;;;24.77;14.85;;;17.40;87.60;;;;;;5074436;28;20380;-78
2021/08/19 03:28:58;;;;;;;21.47;14.20;;;17.50;87.00;;;;;;5081577;28;20998;-76
2021/08/19 03:31:25;;;;;;;22.35;13.95;;;17.50;86.10;;;;;;5086018;28;20398;-75
2021/08/19 03:33:51;;;;;;;24.87;14.37;;;17.50;84.80;;;;;;5080079;28;20380;-77
2021/08/19 03:36:16;;;;;;;23.15;13.90;;;17.50;86.60;;;;;;5077652;28;20391;-78
2021/08/19 03:38:43;;;;;;;25.00;13.90;;;17.50;85.10;;;;;;5072147;28;20884;-77
2021/08/19 03:41:09;;;;;;;28.92;15.40;;;17.40;87.10;;;;;;5072481;28;20403;-77
2021/08/19 03:43:36;;;;;;;23.53;15.07;;;17.40;87.90;;;;;;5072711;28;20376;-77
2021/08/19 03:46:01;;;;;;;22.80;14.67;;;17.40;89.10;;;;;;5072601;28;20768;-76
2021/08/19 03:48:27;;;;;;;25.10;14.87;;;17.50;87.70;;;;;;5070779;28;20391;-76
2021/08/19 03:50:53;;;;;;;25.63;15.57;;;17.50;86.40;;;;;;5074045;28;20799;-77
2021/08/19 03:53:18;;;;;;;28.30;15.68;;;17.50;86.90;;;;;;5073110;28;20391;-76
2021/08/19 03:55:45;;;;;;;26.27;16.10;;;17.50;88.70;;;;;;5053231;28;20389;-74
2021/08/19 03:58:10;;;;;;;23.50;14.02;;;17.50;87.50;;;;;;5051148;28;20405;-72
2021/08/19 04:00:36;;;;;;;30.65;14.80;;;17.60;84.40;;;;;;5063869;28;20857;-74
2021/08/19 04:03:01;;;;;;;23.20;13.77;;;17.70;83.50;;;;;;5071565;28;20407;-74
2021/08/19 04:05:27;;;;;;;21.77;14.70;;;17.60;84.40;;;;;;5071384;28;20376;-72
2021/08/19 04:07:52;;;;;;;25.83;14.80;;;17.60;82.80;;;;;;5070767;28;20384;-73
2021/08/19 04:10:18;;;;;;;25.20;14.70;;;17.50;83.30;;;;;;5071195;28;20383;-72
2021/08/19 04:12:44;;;;;;;25.90;14.07;;;17.60;83.00;;;;;;5071101;28;20414;-72
2021/08/19 04:15:10;;;;;;;23.52;13.57;;;17.60;79.90;;;;;;5071498;28;20387;-74
2021/08/19 04:17:37;;;;;;;23.73;13.33;;;17.60;80.60;;;;;;5071040;28;20431;-74
2021/08/19 04:20:04;;;;;;;21.25;14.23;;;17.60;80.40;;;;;;5071605;28;20443;-74
2021/08/19 04:22:30;;;;;;;27.38;13.45;;;17.60;81.10;;;;;;5071105;28;20388;-74
2021/08/19 04:24:55;;;;;;;23.65;14.10;;;17.60;80.50;;;;;;5070979;28;20380;-74
2021/08/19 04:27:21;;;;;;;24.17;14.60;;;17.70;80.00;;;;;;5071030;28;20422;-73
2021/08/19 04:29:46;;;;;;;23.25;14.50;;;17.60;79.90;;;;;;5070983;28;20875;-74
2021/08/19 04:32:12;;;;;;;20.50;13.98;;;17.60;79.60;;;;;;5070180;28;20961;-74
2021/08/19 04:34:38;;;;;;;24.73;14.23;;;17.70;79.80;;;;;;5069850;28;20479;-74
2021/08/19 04:37:03;;;;;;;21.53;13.60;;;17.60;81.60;;;;;;5071414;28;20887;-73
2021/08/19 04:39:29;;;;;;;25.17;13.60;;;17.70;78.90;;;;;;5070936;28;20390;-74
2021/08/19 04:41:55;;;;;;;24.17;12.10;;;17.70;76.10;;;;;;5071276;28;20840;-74
2021/08/19 04:44:20;;;;;;;21.58;13.07;;;17.80;74.20;;;;;;5070873;28;20925;-73
2021/08/19 04:46:46;;;;;;;20.70;12.90;;;17.80;74.30;;;;;;5070438;28;20380;-74
2021/08/19 04:49:11;;;;;;;24.13;12.97;;;17.80;71.70;;;;;;5070600;28;20433;-74
2021/08/19 04:51:37;;;;;;;26.23;12.83;;;17.70;72.50;;;;;;5070748;28;20395;-73
2021/08/19 04:54:04;;;;;;;22.63;12.57;;;17.70;73.50;;;;;;5066605;28;20473;-73
2021/08/19 04:56:36;;;;;;;20.42;11.98;;;17.70;74.70;;;;;;5050807;28;20385;-74
2021/08/19 04:59:06;;;;;;;23.25;12.80;;;17.80;71.60;;;;;;5050433;28;20559;-73
2021/08/19 05:01:32;;;;;;;23.58;12.90;;;17.80;72.70;;;;;;5049318;28;20805;-72
2021/08/19 05:03:59;;;;;;;23.83;13.15;;;17.70;74.30;;;;;;5050312;28;20370;-72
2021/08/19 05:06:26;;;;;;;20.27;12.00;;;17.70;72.50;;;;;;5050422;28;20585;-73
2021/08/19 05:08:51;;;;;;;18.02;11.93;;;17.80;71.20;;;;;;5049991;28;20746;-73
2021/08/19 05:11:18;;;;;;;20.92;12.32;;;17.80;70.80;;;;;;5050473;28;20384;-74
2021/08/19 05:13:44;;;;;;;19.33;12.02;;;17.80;69.50;;;;;;5050483;28;20401;-73
2021/08/19 05:16:09;;;;;;;15.47;11.50;;;17.80;69.00;;;;;;5049008;28;20385;-74
2021/08/19 05:18:35;;;;;;;17.07;10.60;;;17.80;67.70;;;;;;5049972;28;20476;-74
2021/08/19 05:21:01;;;;;;;25.03;11.60;;;17.80;67.90;;;;;;5050047;28;20464;-73
2021/08/19 05:23:27;;;;;;;18.60;11.88;;;17.80;69.50;;;;;;5050242;28;20377;-74
2021/08/19 05:25:52;;;;;;;22.30;12.02;;;17.70;69.50;;;;;;5050236;28;20470;-74
2021/08/19 05:28:18;;;;;;;16.10;11.20;;;17.70;69.10;;;;;;5049868;28;20423;-72
2021/08/19 05:30:43;;;;;;;19.02;10.90;;;17.80;67.70;;;;;;5049778;28;20775;-74
2021/08/19 05:33:09;;;;;;;15.83;10.90;;;17.80;68.60;;;;;;5050150;28;20389;-73
2021/08/19 05:35:34;;;;;;;22.83;12.10;;;17.80;68.80;;;;;;5050037;28;20472;-73
2021/08/19 05:38:00;;;;;;;18.27;12.05;;;17.80;67.60;;;;;;5049888;28;20412;-74
2021/08/19 05:40:25;;;;;;;18.50;11.57;;;17.80;67.00;;;;;;5049686;28;20735;-74
2021/08/19 05:42:51;;;;;;;20.23;11.20;;;17.80;66.70;;;;;;5051943;28;20381;-75
2021/08/19 05:45:17;;;;;;;16.07;10.67;;;17.80;68.50;;;;;;5054455;28;20388;-74
2021/08/19 05:47:42;;;;;;;21.30;13.00;;;17.80;66.20;;;;;;5054480;28;20384;-73
2021/08/19 05:50:10;;;;;;;19.23;10.82;;;17.80;66.80;;;;;;5055364;28;20389;-73
2021/08/19 05:52:38;;;;;;;19.17;11.27;;;17.90;65.60;;;;;;5054359;28;20433;-73
2021/08/19 05:55:04;;;;;;;16.20;11.10;;;17.90;64.70;;;;;;5066454;28;20899;-73
2021/08/19 05:57:29;;;;;;;21.85;11.20;;;18.00;63.50;;;;;;5073074;28;20407;-73
2021/08/19 05:59:55;;;;;;;18.27;11.47;;;17.90;64.70;;;;;;5073506;28;20395;-73
2021/08/19 06:02:21;;;;;;;20.10;11.33;;;17.90;65.10;;;;;;5073722;28;20382;-72
2021/08/19 06:04:46;;;;;;;23.25;12.63;;;17.90;66.60;;;;;;5073225;28;20856;-72
2021/08/19 06:07:12;;;;;;;23.55;11.77;;;18.00;63.70;;;;;;5073726;28;20390;-75
2021/08/19 06:09:37;;;;;;;22.47;12.20;;;18.10;63.30;;;;;;5074589;28;20392;-72
2021/08/19 06:12:04;;;;;;;20.40;11.77;;;18.10;63.70;;;;;;5073584;28;20945;-76
2021/08/19 06:14:29;;;;;;;18.95;12.05;;;18.10;61.70;;;;;;5074119;28;20383;-75
2021/08/19 06:16:55;;;;;;;17.13;12.23;;;18.10;62.20;;;;;;5072803;28;20403;-76
2021/08/19 06:19:20;;;;;;;20.00;11.73;;;18.20;62.70;;;;;;5072478;28;20444;-76
2021/08/19 06:21:49;;;;;;;20.60;12.33;;;18.20;61.70;;;;;;5073420;28;20483;-75
2021/08/19 06:24:15;;;;;;;19.23;12.10;;;18.20;60.80;;;;;;5072894;28;20423;-74
2021/08/19 06:26:50;;;;;;;20.77;12.10;;;18.30;60.50;;;;;;5072662;28;20408;-77
2021/08/19 06:29:15;;;;;;;18.65;11.30;;;18.30;59.20;;;;;;5073408;28;20395;-73
2021/08/19 06:31:41;;;;;;;18.08;11.02;;;18.30;59.40;;;;;;5096817;23;20441;-76
2021/08/19 06:34:25;;;;;;;18.23;12.13;;;18.30;59.20;;;;;;5109396;28;20377;-85
2021/08/19 06:36:51;;;;;;;16.83;11.90;;;18.30;60.30;;;;;;5087607;28;20382;-78
2021/08/19 06:39:18;;;;;;;16.55;11.05;;;18.30;61.90;;;;;;5102127;28;20401;-78
2021/08/19 06:41:44;;;;;;;21.30;11.45;;;18.40;61.20;;;;;;5123144;28;20437;-78
2021/08/19 06:44:10;;;;;;;17.38;12.30;;;18.50;59.20;;;;;;5128491;28;20380;-82
2021/08/19 06:46:35;;;;;;;20.80;12.13;;;18.60;57.30;;;;;;5110365;28;20496;-78
2021/08/19 06:49:01;;;;;;;20.10;12.65;;;18.60;56.60;;;;;;5100603;28;20944;-78
2021/08/19 06:51:27;;;;;;;20.73;12.95;;;18.60;56.90;;;;;;5100058;28;20378;-78
2021/08/19 06:53:52;;;;;;;20.77;12.50;;;18.60;56.20;;;;;;5101125;28;20502;-78
2021/08/19 06:56:18;;;;;;;21.80;12.80;;;18.60;55.20;;;;;;5120989;28;20392;-77
2021/08/19 06:58:44;;;;;;;22.97;13.10;;;18.50;57.00;;;;;;5119716;28;20435;-79
2021/08/19 07:01:10;;;;;;;20.63;12.67;;;18.60;56.40;;;;;;5102094;28;20477;-78
2021/08/19 07:03:36;;;;;;;25.50;13.00;;;18.60;56.20;;;;;;5098638;28;20433;-77
2021/08/19 07:06:01;;;;;;;17.70;12.10;;;18.60;56.30;;;;;;5099971;28;20409;-78
2021/08/19 07:08:27;;;;;;;19.17;13.10;;;18.70;55.90;;;;;;5100205;28;20386;-78
2021/08/19 07:10:53;;;;;;;22.13;13.10;;;18.70;54.80;;;;;;5098487;28;20386;-78
2021/08/19 07:13:18;;;;;;;20.42;13.18;;;18.70;54.40;;;;;;5103240;28;20877;-77
2021/08/19 07:15:45;;;;;;;22.23;13.40;;;18.60;55.70;;;;;;5119208;28;20384;-77
2021/08/19 07:18:12;;;;;;;21.30;13.32;;;18.70;55.10;;;;;;5095948;28;20476;-79
2021/08/19 07:20:37;;;;;;;18.80;13.40;;;18.80;55.50;;;;;;5098572;28;20378;-78
2021/08/19 07:23:03;;;;;;;20.63;13.38;;;19.00;53.00;;;;;;5103699;28;20397;-79
2021/08/19 07:25:28;;;;;;;19.88;13.32;;;19.10;51.00;;;;;;5109081;28;20394;-79
2021/08/19 07:27:54;;;;;;;18.83;13.00;;;19.30;50.00;;;;;;5100160;28;20397;-79
2021/08/19 07:30:20;;;;;;;21.90;12.77;;;19.30;50.70;;;;;;5101612;28;20825;-78
2021/08/19 07:32:45;;;;;;;22.40;12.95;;;19.30;52.20;;;;;;5098460;28;20416;-79
2021/08/19 07:35:11;;;;;;;18.90;12.95;;;19.30;49.20;;;;;;5121287;28;20388;-79
2021/08/19 07:37:48;;;;;;;24.02;13.85;;;19.30;50.40;;;;;;5100521;28;20405;-77
2021/08/19 07:40:17;;;;;;;20.60;14.00;;;19.10;51.10;;;;;;5107698;28;20390;-80
2021/08/19 07:42:44;;;;;;;23.23;15.07;;;19.10;50.60;;;;;;5107723;28;20450;-80
2021/08/19 07:45:12;;;;;;;26.30;14.98;;;19.00;52.10;;;;;;5114272;28;20388;-78
2021/08/19 07:47:38;;;;;;;24.42;14.45;;;19.00;53.20;;;;;;5102726;28;20809;-79
2021/08/19 07:50:05;;;;;;;22.67;14.40;;;19.00;52.40;;;;;;5108168;28;20421;-77
2021/08/19 07:52:30;;;;;;;21.30;13.90;;;19.20;49.90;;;;;;5118220;28;20798;-77
2021/08/19 07:54:56;;;;;;;24.45;14.00;;;19.30;49.80;;;;;;5107936;28;20417;-77
2021/08/19 07:57:22;;;;;;;20.42;13.25;;;19.20;49.60;;;;;;5106553;28;20814;-79
2021/08/19 07:59:48;;;;;;;22.53;13.07;;;19.20;50.10;;;;;;5109228;28;20411;-74
2021/08/19 08:02:14;;;;;;;20.85;13.70;;;19.10;50.40;;;;;;5096597;28;20468;-74
2021/08/19 08:04:39;;;;;;;21.23;13.68;;;19.10;49.80;;;;;;5109839;28;20468;-75
2021/08/19 08:07:05;;;;;;;21.93;14.03;;;19.10;49.60;;;;;;5111004;28;20392;-74
2021/08/19 08:09:31;;;;;;;23.83;14.20;;;19.10;49.90;;;;;;5093837;28;20442;-74
2021/08/19 08:11:56;;;;;;;21.55;14.25;;;19.10;51.00;;;;;;5095631;28;20393;-74
2021/08/19 08:14:22;;;;;;;21.63;13.90;;;19.20;50.30;;;;;;5097320;28;20467;-75
2021/08/19 08:16:48;;;;;;;25.58;13.80;;;19.30;49.00;;;;;;5115232;28;20395;-76
2021/08/19 08:19:16;;;;;;;20.77;13.67;;;19.30;50.10;;;;;;5095110;28;20420;-74
2021/08/19 08:21:42;;;;;;;22.95;13.43;;;19.40;47.50;;;;;;5113226;28;20380;-75
2021/08/19 08:24:08;;;;;;;21.50;14.40;;;19.50;47.80;;;;;;5097522;28;20387;-74
2021/08/19 08:26:34;;;;;;;20.77;13.50;;;19.40;48.50;;;;;;5114327;28;20795;-73
2021/08/19 08:29:00;;;;;;;28.47;14.57;;;19.30;47.90;;;;;;5112638;28;20721;-75
2021/08/19 08:31:25;;;;;;;24.57;13.70;;;19.30;48.10;;;;;;5112839;28;20396;-75
2021/08/19 08:33:52;;;;;;;19.50;13.50;;;19.20;48.70;;;;;;5114853;28;20388;-76
2021/08/19 08:36:18;;;;;;;24.23;14.43;;;19.10;48.80;;;;;;5115677;28;20429;-75
2021/08/19 08:38:44;;;;;;;23.73;14.52;;;19.10;49.80;;;;;;5116024;28;20829;-75
2021/08/19 08:41:11;;;;;;;26.13;14.05;;;19.10;50.00;;;;;;5097070;28;20441;-76
2021/08/19 08:43:37;;;;;;;22.25;14.50;;;19.20;50.30;;;;;;5114773;28;20391;-75
2021/08/19 08:46:07;;;;;;;23.33;15.32;;;19.30;48.40;;;;;;5096227;28;20388;-73
2021/08/19 08:48:33;;;;;;;25.80;15.13;;;19.20;47.90;;;;;;5096230;28;20384;-75
2021/08/19 08:50:59;;;;;;;24.90;15.13;;;19.10;48.10;;;;;;5095882;28;20700;-74
2021/08/19 08:53:25;;;;;;;24.23;15.50;;;19.20;49.30;;;;;;5114271;28;20416;-74
2021/08/19 08:55:51;;;;;;;22.55;14.52;;;19.30;47.30;;;;;;5094898;28;20813;-74
2021/08/19 08:58:17;;;;;;;24.27;13.93;;;19.40;47.20;;;;;;5094097;28;20402;-74
2021/08/19 09:00:45;;;;;;;25.58;14.30;;;19.60;46.80;;;;;;5108383;28;20391;-75
2021/08/19 09:03:13;;;;;;;28.05;14.55;;;19.80;45.00;;;;;;5096614;28;20384;-75
2021/08/19 09:05:47;;;;;;;24.50;14.88;;;19.90;43.50;;;;;;5096441;28;20446;-76
2021/08/19 09:08:21;;;;;;;24.85;14.80;;;19.90;43.60;;;;;;5114885;28;20479;-75
2021/08/19 09:10:50;;;;;;;24.40;15.18;;;19.90;44.50;;;;;;5096570;28;20448;-74
2021/08/19 09:13:23;;;;;;;23.70;14.15;;;19.90;43.40;;;;;;5096794;28;20380;-75
2021/08/19 09:15:50;;;;;;;23.58;14.05;;;19.80;42.30;;;;;;5096874;28;20396;-77
2021/08/19 09:18:34;;;;;;;22.08;14.07;;;19.70;42.90;;;;;;5116749;28;20494;-75
2021/08/19 09:21:00;;;;;;;18.80;12.67;;;19.60;42.60;;;;;;5099960;28;20377;-74
2021/08/19 09:23:26;;;;;;;21.10;13.57;;;19.70;42.90;;;;;;5118763;28;20467;-73
2021/08/19 09:25:52;;;;;;;19.87;12.40;;;19.70;43.40;;;;;;5118947;28;20376;-74
2021/08/19 09:28:18;;;;;;;22.60;12.90;;;19.80;42.60;;;;;;5119618;28;20398;-74
2021/08/19 09:30:52;;;;;;;22.27;13.15;;;20.00;41.50;;;;;;5101224;28;20471;-74
2021/08/19 09:33:21;;;;;;;17.85;11.75;;;20.20;39.90;;;;;;5101249;28;20388;-74
2021/08/19 09:35:48;;;;;;;16.85;11.55;;;20.20;39.30;;;;;;5101615;28;20383;-74
2021/08/19 09:38:23;;;;;;;17.75;11.10;;;20.10;39.20;;;;;;5121994;28;20411;-74
2021/08/19 09:41:12;;;;;;;20.13;11.60;;;20.10;38.80;;;;;;5123363;28;20376;-75
2021/08/19 09:43:43;;;;;;;14.57;11.25;;;20.20;38.70;;;;;;5121757;28;20384;-74
2021/08/19 09:46:11;;;;;;;17.48;10.30;;;20.30;38.40;;;;;;5121242;28;20372;-76
2021/08/19 09:48:37;;;;;;;17.85;10.30;;;20.60;37.50;;;;;;5120025;28;20471;-76
2021/08/19 09:51:24;;;;;;;15.45;10.25;;;20.80;36.60;;;;;;5084029;28;20471;-74
2021/08/19 09:53:52;;;;;;;12.95;8.95;;;20.90;36.30;;;;;;5116463;28;20868;-75
2021/08/19 09:56:33;;;;;;;11.40;8.82;;;21.00;35.70;;;;;;5080520;28;20905;-76
2021/08/19 09:59:19;;;;;;;14.57;9.02;;;20.80;34.70;;;;;;5080122;28;20755;-74
2021/08/19 10:01:49;;;;;;;17.23;9.18;;;20.60;34.70;;;;;;5098689;28;20374;-75
2021/08/19 10:04:15;;;;;;;10.82;8.70;;;20.60;35.10;;;;;;5099541;28;20381;-75
2021/08/19 10:06:41;;;;;;;12.18;8.55;;;20.70;35.30;;;;;;5098751;28;20366;-75
2021/08/19 10:09:07;;;;;;;12.90;8.50;;;21.00;33.70;;;;;;5098927;28;20370;-75
2021/08/19 10:11:33;;;;;;;11.10;8.50;;;21.20;33.10;;;;;;5099209;28;20439;-75
2021/08/19 10:14:00;;;;;;;14.60;8.30;;;21.30;32.10;;;;;;5097648;28;20381;-75
2021/08/19 10:16:29;;;;;;;12.60;7.90;;;21.50;31.60;;;;;;5096827;28;20377;-76
2021/08/19 10:19:00;;;;;;;10.10;7.65;;;21.80;30.30;;;;;;5096283;28;20475;-75
2021/08/19 10:21:28;;;;;;;8.77;7.10;;;22.20;29.50;;;;;;5096284;28;20862;-75
2021/08/19 10:23:55;;;;;;;9.07;6.40;;;22.20;28.60;;;;;;5078844;28;20739;-76
2021/08/19 10:26:23;;;;;;;9.65;6.55;;;22.00;28.40;;;;;;5078522;28;20488;-76
2021/08/19 10:28:50;;;;;;;9.23;7.07;;;21.80;29.50;;;;;;5096672;28;20908;-75
2021/08/19 10:31:43;;;;;;;13.10;7.18;;;21.70;29.80;;;;;;5097050;28;20394;-77
2021/08/19 10:34:10;;;;;;;10.80;6.65;;;21.60;30.20;;;;;;5097290;28;20386;-76
2021/08/19 10:36:41;;;;;;;10.25;7.65;;;21.40;30.70;;;;;;5097405;28;20858;-76
2021/08/19 10:39:19;;;;;;;11.07;6.70;;;21.10;31.40;;;;;;5078079;28;20898;-74
2021/08/19 10:41:45;;;;;;;9.43;5.87;;;21.00;31.90;;;;;;5096031;28;20441;-75
2021/08/19 10:44:13;;;;;;;8.82;6.22;;;20.90;32.10;;;;;;5095278;28;20734;-74
2021/08/19 10:46:44;;;;;;;9.30;5.50;;;20.90;32.00;;;;;;5075829;28;20401;-76
2021/08/19 10:49:32;;;;;;;11.07;6.00;;;20.90;32.20;;;;;;5094541;28;20384;-75
2021/08/19 10:52:09;;;;;;;7.50;5.60;;;21.00;31.60;;;;;;5094318;28;20393;-76
2021/08/19 10:54:39;;;;;;;8.82;5.70;;;21.00;31.80;;;;;;5086423;28;20453;-75
2021/08/19 10:57:32;;;;;;;7.90;5.50;;;20.90;32.10;;;;;;5114746;28;20475;-76
2021/08/19 11:00:07;;;;;;;8.70;5.40;;;20.80;31.90;;;;;;5108008;28;20447;-77
2021/08/19 11:02:46;;;;;;;7.53;5.78;;;20.50;33.40;;;;;;5097009;28;20528;-74
2021/08/19 11:05:37;;;;;;;10.68;5.22;;;20.30;34.80;;;;;;5096710;28;20374;-74
2021/08/19 11:08:04;;;;;;;5.95;5.00;;;20.20;34.40;;;;;;5096414;28;20381;-74
2021/08/19 11:10:38;;;;;;;11.80;5.75;;;20.20;34.20;;;;;;5079471;28;20417;-75
2021/08/19 11:13:09;;;;;;;9.18;5.43;;;20.20;34.60;;;;;;5095588;28;20410;-76
2021/08/19 11:15:45;;;;;;;7.45;5.10;;;20.20;34.80;;;;;;5078196;28;20459;-75
2021/08/19 11:18:22;;;;;;;9.18;5.60;;;20.20;34.80;;;;;;5095147;28;20923;-75
2021/08/19 11:20:48;;;;;;;9.95;4.72;;;20.10;34.50;;;;;;5079003;28;20393;-74
2021/08/19 11:23:13;;;;;;;6.57;4.43;;;20.10;35.20;;;;;;5080458;28;20378;-75
2021/08/19 11:25:43;;;;;;;9.50;5.33;;;20.10;34.70;;;;;;5077360;28;20390;-75
2021/08/19 11:28:14;;;;;;;7.15;5.03;;;20.00;35.00;;;;;;5095472;28;20877;-76
2021/08/19 11:30:48;;;;;;;6.88;5.38;;;20.00;35.30;;;;;;5077344;28;20389;-75
2021/08/19 11:33:22;;;;;;;7.82;5.22;;;20.00;35.20;;;;;;5096571;28;20373;-76
2021/08/19 11:35:58;;;;;;;8.45;5.72;;;20.10;35.00;;;;;;5095472;28;20742;-74
2021/08/19 11:38:26;;;;;;;8.52;5.90;;;20.00;34.60;;;;;;5095574;28;20410;-75
2021/08/19 11:40:54;;;;;;;8.77;5.80;;;20.00;34.80;;;;;;5075867;28;20439;-74
2021/08/19 11:43:33;;;;;;;9.30;5.30;;;20.00;35.10;;;;;;5095524;28;20374;-75
2021/08/19 11:46:05;;;;;;;10.13;5.70;;;20.10;35.50;;;;;;5098807;28;20427;-75
2021/08/19 11:48:32;;;;;;;9.40;5.80;;;20.20;35.20;;;;;;5106788;28;20869;-75
2021/08/19 11:51:00;;;;;;;8.30;5.63;;;20.30;34.50;;;;;;5081094;28;20385;-76
2021/08/19 11:53:26;;;;;;;9.80;5.80;;;20.20;34.90;;;;;;5106831;28;20414;-75
2021/08/19 11:55:53;;;;;;;9.63;6.25;;;20.20;35.40;;;;;;5077035;28;20397;-75
2021/08/19 11:58:18;;;;;;;8.23;5.82;;;20.20;35.50;;;;;;5095501;28;20434;-76
2021/08/19 12:01:06;;;;;;;8.23;6.38;;;20.20;35.90;;;;;;5110478;28;20466;-75
2021/08/19 12:03:37;;;;;;;10.48;6.25;;;20.10;36.20;;;;;;5080729;28;20447;-74
2021/08/19 12:06:11;;;;;;;11.52;7.32;;;20.20;36.30;;;;;;5098453;28;20409;-75
2021/08/19 12:08:39;;;;;;;13.13;6.93;;;20.30;36.40;;;;;;5109911;28;20421;-75
2021/08/19 12:11:06;;;;;;;11.98;7.35;;;20.50;35.90;;;;;;5102593;28;20419;-75
2021/08/19 12:13:35;;;;;;;9.68;7.10;;;20.60;35.00;;;;;;5094373;28;20389;-75
2021/08/19 12:16:00;;;;;;;9.02;7.10;;;20.70;34.90;;;;;;5098703;28;20413;-76
2021/08/19 12:18:27;;;;;;;8.55;6.20;;;20.90;34.90;;;;;;5116973;28;20433;-76
2021/08/19 12:21:18;;;;;;;9.80;6.70;;;20.90;34.30;;;;;;5116506;28;20465;-76
2021/08/19 12:23:46;;;;;;;9.27;7.07;;;21.00;34.00;;;;;;5107265;28;20773;-75
2021/08/19 12:26:15;;;;;;;8.45;6.53;;;20.90;34.50;;;;;;5096360;28;20398;-76
2021/08/19 12:28:54;;;;;;;9.57;7.30;;;21.10;33.60;;;;;;5097016;28;20736;-73
2021/08/19 12:31:20;;;;;;;9.45;7.00;;;21.20;33.80;;;;;;5095086;23;20864;-73
2021/08/19 12:33:45;;;;;;;9.40;6.80;;;21.40;32.90;;;;;;5050950;28;20477;-73